createdAt,value
2019-03-01T00:01:42.489Z,16.10
2019-03-01T00:04:19.638Z,14.93
2019-03-01T00:07:36.677Z,14.63
2019-03-01T00:10:57.795Z,14.20
2019-03-01T00:13:56.857Z,14.50
2019-03-01T00:16:57.319Z,14.63
2019-03-01T00:19:54.857Z,15.03
2019-03-01T00:22:39.178Z,16.03
2019-03-01T00:25:51.803Z,14.90
2019-03-01T00:28:52.934Z,15.97
2019-03-01T00:31:57.627Z,16.60
2019-03-01T00:34:56.407Z,15.63
2019-03-01T00:37:40.959Z,15.07
2019-03-01T00:40:48.639Z,15.43
2019-03-01T00:44:10.053Z,16.13
2019-03-01T00:46:37.195Z,16.97
2019-03-01T00:49:04.242Z,17.10
2019-03-01T00:51:31.288Z,17.97
2019-03-01T00:53:58.477Z,17.80
2019-03-01T00:56:25.564Z,17.20
2019-03-01T00:58:52.614Z,17.37
2019-03-01T01:01:19.701Z,17.13
2019-03-01T01:03:46.752Z,17.83
2019-03-01T01:06:13.815Z,17.20
2019-03-01T01:08:40.877Z,19.17
2019-03-01T01:11:07.923Z,18.63
2019-03-01T01:13:34.980Z,19.33
2019-03-01T01:16:02.100Z,18.10
2019-03-01T01:18:29.139Z,18.93
2019-03-01T01:20:56.175Z,17.73
2019-03-01T01:23:23.544Z,18.47
2019-03-01T01:25:50.595Z,18.37
2019-03-01T01:28:17.661Z,18.90
2019-03-01T01:30:44.851Z,19.20
2019-03-01T01:33:12.151Z,17.97
2019-03-01T01:35:39.192Z,17.37
2019-03-01T01:38:06.242Z,17.13
2019-03-01T01:40:33.343Z,17.73
2019-03-01T01:43:00.392Z,18.67
2019-03-01T01:45:27.462Z,19.07
2019-03-01T01:47:54.543Z,17.87
2019-03-01T01:50:21.598Z,19.03
2019-03-01T01:52:48.649Z,16.47
2019-03-01T01:55:15.742Z,19.23
2019-03-01T01:57:42.801Z,18.43
2019-03-01T02:00:10.656Z,20.00
2019-03-01T02:02:37.877Z,18.13
2019-03-01T02:05:05.432Z,18.43
2019-03-01T02:07:32.482Z,18.07
2019-03-01T02:09:59.555Z,18.40
2019-03-01T02:12:45.070Z,19.10
2019-03-01T02:15:12.736Z,18.53
2019-03-01T02:17:39.837Z,17.00
2019-03-01T02:20:07.942Z,17.97
2019-03-01T02:22:35.039Z,18.57
2019-03-01T02:25:02.106Z,17.33
2019-03-01T02:27:29.448Z,15.83
2019-03-01T02:29:57.912Z,16.83
2019-03-01T02:32:35.381Z,18.17
2019-03-01T02:35:02.582Z,16.83
2019-03-01T02:37:29.756Z,16.63
2019-03-01T02:39:56.794Z,16.57
2019-03-01T02:42:23.875Z,18.10
2019-03-01T02:44:53.024Z,16.53
2019-03-01T02:47:26.401Z,18.90
2019-03-01T02:49:53.453Z,19.13
2019-03-01T02:52:20.501Z,17.53
2019-03-01T02:54:47.587Z,17.77
2019-03-01T02:57:14.635Z,18.90
2019-03-01T02:59:41.702Z,18.27
2019-03-01T03:02:08.792Z,16.13
2019-03-01T03:04:35.866Z,17.77
2019-03-01T03:07:29.688Z,18.50
2019-03-01T03:09:57.044Z,17.73
2019-03-01T03:12:24.123Z,18.60
2019-03-01T03:15:12.192Z,18.70
2019-03-01T03:17:39.243Z,18.90
2019-03-01T03:20:07.552Z,20.70
2019-03-01T03:22:34.637Z,20.07
2019-03-01T03:25:01.729Z,21.03
2019-03-01T03:27:28.786Z,21.00
2019-03-01T03:29:55.904Z,22.87
2019-03-01T03:32:22.939Z,22.17
2019-03-01T03:34:49.972Z,24.17
2019-03-01T03:37:19.400Z,23.23
2019-03-01T03:39:46.444Z,25.13
2019-03-01T03:42:13.543Z,23.90
2019-03-01T03:44:40.656Z,24.40
2019-03-01T03:47:07.705Z,25.27
2019-03-01T03:49:34.756Z,24.63
2019-03-01T03:52:01.844Z,24.23
2019-03-01T03:54:28.883Z,23.93
2019-03-01T03:56:56.063Z,26.10
2019-03-01T03:59:23.175Z,24.93
2019-03-01T04:01:50.217Z,23.47
2019-03-01T04:04:17.267Z,25.33
2019-03-01T04:06:44.322Z,26.17
2019-03-01T04:09:11.374Z,24.40
2019-03-01T04:11:38.439Z,25.10
2019-03-01T04:14:05.626Z,25.07
2019-03-01T04:16:33.064Z,27.77
2019-03-01T04:19:00.112Z,27.00
2019-03-01T04:21:27.199Z,25.00
2019-03-01T04:23:54.275Z,27.43
2019-03-01T04:26:21.341Z,29.00
2019-03-01T04:28:50.129Z,29.07
2019-03-01T04:31:17.203Z,27.87
2019-03-01T04:33:44.247Z,29.37
2019-03-01T04:36:11.330Z,30.37
2019-03-01T04:38:38.383Z,31.90
2019-03-01T04:41:05.424Z,29.50
2019-03-01T04:43:32.505Z,32.33
2019-03-01T04:46:00.571Z,30.90
2019-03-01T04:48:27.632Z,33.07
2019-03-01T04:50:54.752Z,33.57
2019-03-01T04:53:21.827Z,35.37
2019-03-01T04:55:48.882Z,38.27
2019-03-01T04:58:15.991Z,47.53
2019-03-01T05:00:51.214Z,50.47
2019-03-01T05:03:18.283Z,52.13
2019-03-01T05:05:45.457Z,75.90
2019-03-01T05:08:12.507Z,72.83
2019-03-01T05:10:39.554Z,83.53
2019-03-01T05:13:06.648Z,87.63
2019-03-01T05:15:33.683Z,93.07
2019-03-01T05:18:00.845Z,90.97
2019-03-01T05:20:29.802Z,99.07
2019-03-01T05:22:56.875Z,105.10
2019-03-01T05:25:23.923Z,108.47
2019-03-01T05:27:51.226Z,108.93
2019-03-01T05:30:18.331Z,109.73
2019-03-01T05:32:47.941Z,114.80
2019-03-01T05:35:15.029Z,118.73
2019-03-01T05:37:42.083Z,123.50
2019-03-01T05:40:10.345Z,122.63
2019-03-01T05:42:37.424Z,130.47
2019-03-01T05:45:06.795Z,124.20
2019-03-01T05:47:33.830Z,131.50
2019-03-01T05:50:01.105Z,133.20
2019-03-01T05:52:28.162Z,132.93
2019-03-01T05:54:55.230Z,132.37
2019-03-01T05:57:22.344Z,132.33
2019-03-01T05:59:49.401Z,130.13
2019-03-01T06:03:04.472Z,131.33
2019-03-01T06:05:44.010Z,127.13
2019-03-01T06:08:25.736Z,133.37
2019-03-01T06:11:08.041Z,134.17
2019-03-01T06:13:54.479Z,135.27
2019-03-01T06:16:57.906Z,133.73
2019-03-01T06:19:53.574Z,131.10
2019-03-01T06:26:18.149Z,123.00
2019-03-01T06:29:19.302Z,126.77
2019-03-01T06:32:33.278Z,129.60
2019-03-01T06:35:26.579Z,130.17
2019-03-01T06:39:08.360Z,135.60
2019-03-01T06:41:56.876Z,134.37
2019-03-01T06:45:08.066Z,133.23
2019-03-01T06:47:47.370Z,137.47
2019-03-01T06:50:19.408Z,132.37
2019-03-01T06:52:47.019Z,117.17
2019-03-01T06:55:38.960Z,107.67
2019-03-01T06:58:08.354Z,105.30
2019-03-01T07:00:47.308Z,100.80
2019-03-01T07:03:09.024Z,96.73
2019-03-01T07:05:36.089Z,96.00
2019-03-01T07:08:03.148Z,96.70
2019-03-01T07:10:30.259Z,93.57
2019-03-01T07:12:57.316Z,88.17
2019-03-01T07:15:24.497Z,86.97
2019-03-01T07:17:51.611Z,85.27
2019-03-01T07:20:18.699Z,87.03
2019-03-01T07:22:45.765Z,86.50
2019-03-01T07:25:12.893Z,90.70
2019-03-01T07:27:39.960Z,95.93
2019-03-01T07:30:07.611Z,90.63
2019-03-01T07:32:34.815Z,87.03
2019-03-01T07:35:16.945Z,92.10
2019-03-01T07:37:44.063Z,90.20
2019-03-01T07:40:11.143Z,92.67
2019-03-01T07:42:38.217Z,89.47
2019-03-01T07:45:06.600Z,87.33
2019-03-01T07:47:34.282Z,87.33
2019-03-01T07:50:02.551Z,80.03
2019-03-01T07:52:29.640Z,79.53
2019-03-01T07:54:56.689Z,79.03
2019-03-01T07:57:23.726Z,81.20
2019-03-01T07:59:50.920Z,79.70
2019-03-01T08:02:18.023Z,76.57
2019-03-01T08:04:45.331Z,74.50
2019-03-01T08:07:12.639Z,79.90
2019-03-01T08:09:41.381Z,72.17
2019-03-01T08:12:08.679Z,73.73
2019-03-01T08:14:35.767Z,74.97
2019-03-01T08:17:03.603Z,71.90
2019-03-01T08:19:30.777Z,68.57
2019-03-01T08:21:57.872Z,72.87
2019-03-01T08:24:24.920Z,74.40
2019-03-01T08:26:52.026Z,73.93
2019-03-01T08:29:19.135Z,69.17
2019-03-01T08:31:47.434Z,71.97
2019-03-01T08:34:17.636Z,72.20
2019-03-01T08:36:43.731Z,73.97
2019-03-01T08:39:10.886Z,72.30
2019-03-01T08:41:37.954Z,75.27
2019-03-01T08:44:05.023Z,73.27
2019-03-01T08:46:32.127Z,85.63
2019-03-01T08:48:59.353Z,87.57
2019-03-01T08:51:27.633Z,92.07
2019-03-01T08:53:54.803Z,98.03
2019-03-01T08:56:26.108Z,92.73
2019-03-01T08:58:50.917Z,98.60
2019-03-01T09:01:18.068Z,94.80
2019-03-01T09:03:55.419Z,100.03
2019-03-01T09:06:30.048Z,96.00
2019-03-01T09:08:57.100Z,95.20
2019-03-01T09:11:24.164Z,97.67
2019-03-01T09:13:51.221Z,94.53
2019-03-01T09:16:18.547Z,84.93
2019-03-01T09:18:46.649Z,77.40
2019-03-01T09:21:14.642Z,76.20
2019-03-01T09:23:41.685Z,79.00
2019-03-01T09:26:08.873Z,80.20
2019-03-01T09:28:39.470Z,77.80
2019-03-01T09:31:04.988Z,77.33
2019-03-01T09:33:32.036Z,69.57
2019-03-01T09:36:09.130Z,64.50
2019-03-01T09:38:39.426Z,68.23
2019-03-01T09:41:05.432Z,64.60
2019-03-01T09:43:32.523Z,65.23
2019-03-01T09:45:59.601Z,62.20
2019-03-01T09:48:26.675Z,60.77
2019-03-01T09:50:53.893Z,66.40
2019-03-01T09:53:20.967Z,63.80
2019-03-01T09:55:48.125Z,64.07
2019-03-01T09:58:15.475Z,63.37
2019-03-01T10:00:55.652Z,58.73
2019-03-01T10:03:14.602Z,61.80
2019-03-01T10:05:41.722Z,63.30
2019-03-01T10:08:17.008Z,61.93
2019-03-01T10:10:44.217Z,61.10
2019-03-01T10:13:11.313Z,63.27
2019-03-01T10:15:38.375Z,62.87
2019-03-01T10:18:05.455Z,65.23
2019-03-01T10:20:32.504Z,65.30
2019-03-01T10:22:59.580Z,65.20
2019-03-01T10:25:26.666Z,66.23
2019-03-01T10:27:53.772Z,65.77
2019-03-01T10:30:20.855Z,67.60
2019-03-01T10:32:48.150Z,69.77
2019-03-01T10:35:15.271Z,65.30
2019-03-01T10:37:42.789Z,70.47
2019-03-01T10:40:11.967Z,67.30
2019-03-01T10:42:39.070Z,72.83
2019-03-01T10:45:08.835Z,64.40
2019-03-01T10:47:35.912Z,65.90
2019-03-01T10:50:05.608Z,64.50
2019-03-01T10:52:50.772Z,61.17
2019-03-01T10:55:18.048Z,61.53
2019-03-01T10:57:45.234Z,58.93
2019-03-01T11:00:23.943Z,62.43
2019-03-01T11:02:50.980Z,58.13
2019-03-01T11:05:18.384Z,61.33
2019-03-01T11:07:46.130Z,61.60
2019-03-01T11:10:15.743Z,60.70
2019-03-01T11:12:42.809Z,59.13
2019-03-01T11:15:10.827Z,57.97
2019-03-01T11:17:37.897Z,62.57
2019-03-01T11:20:05.546Z,61.17
2019-03-01T11:22:32.891Z,55.13
2019-03-01T11:24:59.941Z,57.77
2019-03-01T11:27:27.061Z,56.20
2019-03-01T11:29:55.184Z,57.57
2019-03-01T11:32:22.303Z,53.47
2019-03-01T11:34:49.412Z,45.80
2019-03-01T11:37:19.395Z,43.50
2019-03-01T11:39:46.507Z,40.20
2019-03-01T11:42:13.819Z,37.60
2019-03-01T11:44:40.893Z,33.87
2019-03-01T11:47:09.057Z,27.70
2019-03-01T11:49:36.619Z,31.83
2019-03-01T11:52:04.690Z,27.33
2019-03-01T11:54:31.907Z,27.43
2019-03-01T11:56:58.983Z,29.00
2019-03-01T11:59:26.074Z,30.23
2019-03-01T12:01:53.191Z,28.07
2019-03-01T12:04:20.281Z,26.03
2019-03-01T12:06:47.405Z,24.20
2019-03-01T12:09:14.506Z,22.33
2019-03-01T12:11:59.973Z,24.23
2019-03-01T12:14:27.104Z,19.67
2019-03-01T12:16:54.150Z,18.67
2019-03-01T12:19:21.318Z,19.20
2019-03-01T12:21:48.448Z,17.93
2019-03-01T12:24:15.658Z,17.33
2019-03-01T12:26:44.550Z,15.67
2019-03-01T12:29:11.669Z,17.17
2019-03-01T12:31:38.896Z,18.80
2019-03-01T12:34:07.640Z,16.40
2019-03-01T12:36:34.758Z,15.70
2019-03-01T12:39:03.036Z,17.63
2019-03-01T12:41:30.087Z,14.70
2019-03-01T12:43:57.187Z,14.53
2019-03-01T12:46:24.294Z,15.00
2019-03-01T12:48:51.469Z,15.20
2019-03-01T12:51:18.546Z,15.73
2019-03-01T12:53:45.690Z,13.90
2019-03-01T12:56:12.834Z,14.53
2019-03-01T12:58:39.954Z,15.30
2019-03-01T13:01:07.169Z,14.17
2019-03-01T13:03:34.239Z,13.83
2019-03-01T13:06:03.827Z,13.77
2019-03-01T13:08:30.294Z,13.60
2019-03-01T13:10:57.385Z,12.20
2019-03-01T13:13:24.548Z,14.37
2019-03-01T13:15:52.378Z,13.53
2019-03-01T13:18:19.652Z,13.27
2019-03-01T13:20:46.852Z,13.33
2019-03-01T13:23:14.021Z,14.00
2019-03-01T13:25:41.147Z,14.27
2019-03-01T13:28:08.234Z,14.20
2019-03-01T13:30:36.635Z,15.13
2019-03-01T13:33:13.428Z,14.67
2019-03-01T13:35:40.943Z,16.73
2019-03-01T13:38:44.663Z,15.57
2019-03-01T13:41:12.270Z,14.97
2019-03-01T13:43:39.365Z,14.97
2019-03-01T13:46:06.423Z,17.83
2019-03-01T13:48:33.538Z,14.23
2019-03-01T13:51:00.623Z,15.67
2019-03-01T13:53:30.231Z,15.43
2019-03-01T13:56:11.785Z,15.27
2019-03-01T13:58:38.898Z,16.17
2019-03-01T14:01:06.884Z,16.30
2019-03-01T14:03:33.939Z,16.40
2019-03-01T14:06:02.239Z,15.77
2019-03-01T14:08:29.417Z,16.67
2019-03-01T14:10:56.502Z,16.40
2019-03-01T14:13:23.860Z,15.60
2019-03-01T14:15:51.038Z,14.87
2019-03-01T14:18:18.138Z,15.33
2019-03-01T14:20:45.206Z,16.97
2019-03-01T14:23:12.390Z,15.90
2019-03-01T14:25:41.646Z,16.00
2019-03-01T14:28:08.610Z,15.30
2019-03-01T14:30:35.654Z,14.07
2019-03-01T14:33:02.893Z,15.40
2019-03-01T14:35:31.197Z,15.47
2019-03-01T14:37:58.282Z,14.27
2019-03-01T14:40:27.214Z,14.80
2019-03-01T14:42:54.304Z,13.40
2019-03-01T14:45:22.697Z,12.87
2019-03-01T14:47:50.099Z,13.57
2019-03-01T14:50:18.987Z,14.00
2019-03-01T14:53:22.853Z,14.63
2019-03-01T14:55:55.576Z,13.47
2019-03-01T14:58:40.079Z,12.33
2019-03-01T15:01:29.596Z,13.20
2019-03-01T15:03:56.811Z,12.63
2019-03-01T15:06:24.879Z,12.93
2019-03-01T15:08:51.937Z,13.17
2019-03-01T15:11:20.887Z,12.93
2019-03-01T15:13:49.109Z,13.07
2019-03-01T15:16:16.192Z,13.93
2019-03-01T15:18:43.459Z,13.83
2019-03-01T15:21:11.320Z,12.70
2019-03-01T15:23:38.507Z,11.60
2019-03-01T15:26:09.956Z,11.80
2019-03-01T15:28:53.903Z,12.27
2019-03-01T15:31:17.780Z,11.43
2019-03-01T15:33:47.095Z,11.23
2019-03-01T15:36:17.991Z,12.17
2019-03-01T15:38:43.056Z,12.93
2019-03-01T15:41:10.453Z,11.97
2019-03-01T15:43:37.513Z,11.27
2019-03-01T15:46:04.812Z,11.47
2019-03-01T15:48:34.529Z,10.23
2019-03-01T15:51:02.520Z,10.43
2019-03-01T15:53:29.866Z,10.73
2019-03-01T15:55:56.960Z,10.93
2019-03-01T15:58:33.147Z,10.10
2019-03-01T16:01:00.406Z,11.00
2019-03-01T16:03:27.572Z,9.50
2019-03-01T16:05:54.644Z,9.40
2019-03-01T16:08:21.754Z,8.03
2019-03-01T16:10:48.910Z,8.07
2019-03-01T16:13:15.974Z,8.83
2019-03-01T16:15:43.068Z,7.97
2019-03-01T16:18:19.012Z,7.70
2019-03-01T16:20:54.338Z,7.77
2019-03-01T16:23:33.927Z,5.87
2019-03-01T16:26:01.037Z,6.70
2019-03-01T16:28:31.154Z,6.40
2019-03-01T16:30:57.076Z,7.90
2019-03-01T16:33:26.324Z,6.60
2019-03-01T16:35:53.176Z,8.10
2019-03-01T16:38:20.292Z,6.80
2019-03-01T16:40:47.371Z,6.27
2019-03-01T16:43:14.508Z,7.00
2019-03-01T16:45:41.556Z,6.93
2019-03-01T16:48:08.741Z,7.07
2019-03-01T16:50:35.833Z,7.00
2019-03-01T16:53:04.773Z,6.90
2019-03-01T16:55:31.990Z,6.93
2019-03-01T16:58:07.510Z,7.10
2019-03-01T17:00:33.762Z,6.37
2019-03-01T17:03:00.791Z,7.27
2019-03-01T17:05:35.811Z,6.87
2019-03-01T17:08:05.789Z,6.90
2019-03-01T17:10:32.507Z,6.83
2019-03-01T17:12:59.791Z,7.87
2019-03-01T17:15:26.851Z,7.07
2019-03-01T17:17:53.978Z,6.97
2019-03-01T17:20:21.061Z,8.27
2019-03-01T17:22:48.324Z,7.97
2019-03-01T17:25:19.515Z,8.57
2019-03-01T17:27:46.732Z,7.97
2019-03-01T17:30:17.766Z,7.83
2019-03-01T17:32:45.031Z,7.27
2019-03-01T17:35:12.764Z,7.97
2019-03-01T17:37:40.663Z,6.83
2019-03-01T17:40:08.621Z,6.60
2019-03-01T17:42:35.684Z,6.97
2019-03-01T17:45:58.554Z,7.87
2019-03-01T17:48:25.694Z,7.27
2019-03-01T17:50:52.850Z,7.37
2019-03-01T17:53:19.930Z,7.40
2019-03-01T17:55:46.992Z,6.60
2019-03-01T17:58:14.237Z,7.17
2019-03-01T18:00:41.706Z,7.10
2019-03-01T18:03:08.762Z,7.20
2019-03-01T18:05:40.610Z,6.27
2019-03-01T18:08:06.846Z,6.57
2019-03-01T18:10:33.971Z,5.07
2019-03-01T18:13:37.601Z,5.17
2019-03-01T18:16:24.874Z,4.60
2019-03-01T18:18:54.464Z,4.37
2019-03-01T18:21:21.682Z,4.23
2019-03-01T18:23:50.355Z,3.80
2019-03-01T18:26:17.449Z,3.87
2019-03-01T18:28:44.573Z,4.07
2019-03-01T18:31:50.338Z,3.80
2019-03-01T18:34:17.595Z,3.93
2019-03-01T18:36:46.053Z,3.37
2019-03-01T18:39:13.159Z,3.60
2019-03-01T18:42:16.892Z,4.00
2019-03-01T18:44:43.959Z,4.03
2019-03-01T18:47:11.018Z,3.60
2019-03-01T18:49:38.179Z,4.27
2019-03-01T18:52:59.826Z,3.00
2019-03-01T18:55:27.001Z,3.53
2019-03-01T18:57:54.155Z,4.37
2019-03-01T19:00:23.974Z,3.80
2019-03-01T19:06:22.896Z,3.10
2019-03-01T19:08:50.023Z,4.67
2019-03-01T19:11:17.212Z,3.93
2019-03-01T19:13:44.506Z,4.00
2019-03-01T19:16:56.483Z,3.97
2019-03-01T19:19:29.710Z,3.20
2019-03-01T19:21:53.681Z,3.37
2019-03-01T19:24:20.772Z,3.80
2019-03-01T19:26:48.026Z,3.73
2019-03-01T19:29:15.215Z,4.03
2019-03-01T19:31:42.282Z,3.80
2019-03-01T19:34:09.381Z,4.00
2019-03-01T19:36:38.889Z,4.10
2019-03-01T19:39:15.119Z,4.00
2019-03-01T19:41:42.319Z,3.87
2019-03-01T19:44:09.432Z,3.63
2019-03-01T19:46:36.689Z,3.60
2019-03-01T19:49:03.798Z,4.50
2019-03-01T19:51:33.730Z,5.33
2019-03-01T19:54:01.204Z,4.50
2019-03-01T19:56:29.118Z,5.83
2019-03-01T19:58:56.184Z,4.87
2019-03-01T20:01:23.319Z,4.33
2019-03-01T20:03:50.388Z,4.87
2019-03-01T20:06:17.488Z,4.87
2019-03-01T20:08:44.855Z,5.00
2019-03-01T20:11:11.921Z,4.33
2019-03-01T20:13:39.023Z,4.83
2019-03-01T20:16:06.141Z,4.17
2019-03-01T20:18:33.208Z,4.90
2019-03-01T20:21:00.362Z,4.63
2019-03-01T20:23:29.545Z,4.87
2019-03-01T20:26:01.161Z,4.30
2019-03-01T20:28:28.214Z,4.67
2019-03-01T20:30:55.326Z,5.03
2019-03-01T20:33:23.468Z,4.43
2019-03-01T20:35:54.544Z,5.23
2019-03-01T20:38:21.663Z,5.43
2019-03-01T20:40:48.745Z,5.13
2019-03-01T20:43:53.932Z,5.70
2019-03-01T20:46:27.632Z,5.10
2019-03-01T20:48:54.694Z,6.93
2019-03-01T20:51:26.293Z,6.90
2019-03-01T20:53:51.064Z,6.70
2019-03-01T20:57:10.197Z,6.77
2019-03-01T20:59:39.087Z,8.20
2019-03-01T21:02:09.611Z,8.30
2019-03-01T21:04:36.656Z,8.53
2019-03-01T21:07:04.470Z,8.67
2019-03-01T21:09:31.534Z,8.60
2019-03-01T21:12:01.080Z,9.23
2019-03-01T21:14:27.874Z,9.00
2019-03-01T21:16:55.140Z,9.80
2019-03-01T21:19:22.234Z,11.07
2019-03-01T21:21:49.429Z,11.33
2019-03-01T21:24:16.506Z,13.37
2019-03-01T21:26:43.722Z,12.57
2019-03-01T21:29:12.426Z,11.97
2019-03-01T21:31:39.785Z,12.60
2019-03-01T21:34:06.912Z,12.90
2019-03-01T21:36:34.129Z,12.83
2019-03-01T21:39:01.374Z,14.07
2019-03-01T21:41:28.445Z,13.10
2019-03-01T21:43:55.506Z,13.97
2019-03-01T21:46:22.686Z,14.77
2019-03-01T21:48:49.756Z,13.50
2019-03-01T21:51:18.432Z,13.50
2019-03-01T21:53:46.021Z,13.87
2019-03-01T21:56:13.067Z,14.60
2019-03-01T21:58:41.927Z,13.73
2019-03-01T22:01:09.151Z,14.40
2019-03-01T22:03:36.222Z,14.83
2019-03-01T22:06:03.289Z,14.60
2019-03-01T22:08:30.399Z,15.13
2019-03-01T22:10:57.466Z,13.50
2019-03-01T22:13:24.541Z,13.83
2019-03-01T22:15:51.595Z,14.90
2019-03-01T22:18:20.452Z,13.20
2019-03-01T22:20:47.766Z,14.00
2019-03-01T22:23:15.794Z,13.30
2019-03-01T22:25:43.677Z,13.73
2019-03-01T22:28:10.782Z,12.70
2019-03-01T22:30:37.876Z,14.03
2019-03-01T22:33:04.954Z,12.30
2019-03-01T22:35:32.055Z,12.27
2019-03-01T22:38:00.831Z,12.57
2019-03-01T22:40:29.399Z,11.73
2019-03-01T22:42:56.630Z,12.17
2019-03-01T22:45:23.740Z,12.30
2019-03-01T22:47:50.847Z,12.93
2019-03-01T22:50:18.146Z,12.50
2019-03-01T22:52:45.379Z,12.70
2019-03-01T22:55:47.077Z,12.53
2019-03-01T22:58:14.188Z,12.47
2019-03-01T23:01:16.042Z,12.37
2019-03-01T23:03:45.725Z,12.50
2019-03-01T23:06:14.747Z,12.17
2019-03-01T23:09:10.661Z,12.03
2019-03-01T23:11:38.888Z,10.83
2019-03-01T23:14:05.971Z,11.57
2019-03-01T23:16:33.066Z,10.90
2019-03-01T23:19:00.108Z,10.70
2019-03-01T23:21:27.187Z,10.73
2019-03-01T23:23:55.910Z,11.17
2019-03-01T23:26:23.266Z,11.10
2019-03-01T23:28:50.292Z,10.47
2019-03-01T23:31:17.381Z,10.93
2019-03-01T23:33:44.548Z,11.27
2019-03-01T23:36:11.639Z,10.70
2019-03-01T23:38:38.813Z,11.07
2019-03-01T23:41:07.747Z,10.33
2019-03-01T23:43:43.187Z,11.13
2019-03-01T23:46:10.359Z,10.53
2019-03-01T23:48:37.434Z,10.57
2019-03-01T23:51:06.685Z,9.77
2019-03-01T23:53:34.105Z,10.67
2019-03-01T23:56:01.265Z,10.07
2019-03-01T23:58:28.369Z,10.17
